createdAt,value
2022-08-05T00:01:35.938Z,27.00
2022-08-05T00:04:16.340Z,27.00
2022-08-05T00:06:44.037Z,26.90
2022-08-05T00:09:12.893Z,26.90
2022-08-05T00:11:48.645Z,26.90
2022-08-05T00:14:17.990Z,26.90
2022-08-05T00:16:52.133Z,26.90
2022-08-05T00:19:33.087Z,26.90
2022-08-05T00:22:02.641Z,26.80
2022-08-05T00:24:31.212Z,26.80
2022-08-05T00:26:59.675Z,26.80
2022-08-05T00:29:32.962Z,26.80
2022-08-05T00:32:12.724Z,26.80
2022-08-05T00:35:05.511Z,26.70
2022-08-05T00:37:50.944Z,26.70
2022-08-05T00:40:28.325Z,26.70
2022-08-05T00:43:02.249Z,26.70
2022-08-05T00:45:43.115Z,26.60
2022-08-05T00:48:13.890Z,26.60
2022-08-05T00:50:44.394Z,26.60
2022-08-05T00:53:59.769Z,26.60
2022-08-05T00:56:04.122Z,26.60
2022-08-05T00:58:31.379Z,26.60
2022-08-05T01:00:58.699Z,26.50
2022-08-05T01:03:31.042Z,26.50
2022-08-05T01:06:01.785Z,26.50
2022-08-05T01:08:43.418Z,26.50
2022-08-05T01:11:33.420Z,26.60
2022-08-05T01:14:08.749Z,26.60
2022-08-05T01:17:05.285Z,26.60
2022-08-05T01:20:01.915Z,26.50
2022-08-05T01:23:15.230Z,26.50
2022-08-05T01:26:17.287Z,26.40
2022-08-05T01:28:51.113Z,26.50
2022-08-05T01:31:29.977Z,26.50
2022-08-05T01:34:35.870Z,26.40
2022-08-05T01:37:09.933Z,26.40
2022-08-05T01:39:58.732Z,26.40
2022-08-05T01:42:28.016Z,26.30
2022-08-05T01:45:02.322Z,26.30
2022-08-05T01:47:39.758Z,26.30
2022-08-05T01:50:28.871Z,26.20
2022-08-05T01:53:02.860Z,26.20
2022-08-05T01:55:36.120Z,26.20
2022-08-05T01:58:10.550Z,26.10
2022-08-05T02:00:45.827Z,26.10
2022-08-05T02:03:24.601Z,26.10
2022-08-05T02:06:00.958Z,26.10
2022-08-05T02:08:30.724Z,26.10
2022-08-05T02:11:23.887Z,26.10
2022-08-05T02:14:17.083Z,26.10
2022-08-05T02:16:53.133Z,26.10
2022-08-05T02:19:36.536Z,26.00
2022-08-05T02:22:17.522Z,26.10
2022-08-05T02:25:02.098Z,26.00
2022-08-05T02:27:58.009Z,26.00
2022-08-05T02:30:22.436Z,26.10
2022-08-05T02:32:52.827Z,26.10
2022-08-05T02:35:27.919Z,26.00
2022-08-05T02:38:00.084Z,26.00
2022-08-05T02:40:30.534Z,26.00
2022-08-05T02:43:00.118Z,26.00
2022-08-05T02:45:51.937Z,26.00
2022-08-05T02:48:17.638Z,26.00
2022-08-05T02:50:48.450Z,25.90
2022-08-05T02:53:19.621Z,25.90
2022-08-05T02:55:59.741Z,25.90
2022-08-05T02:58:30.024Z,25.80
2022-08-05T03:01:02.037Z,25.80
2022-08-05T03:03:34.137Z,25.80
2022-08-05T03:06:53.942Z,25.80
2022-08-05T03:09:08.090Z,25.80
2022-08-05T03:11:54.470Z,25.80
2022-08-05T03:14:22.814Z,25.80
2022-08-05T03:16:53.376Z,25.80
2022-08-05T03:19:34.424Z,25.80
2022-08-05T03:22:04.669Z,25.80
2022-08-05T03:24:33.612Z,25.80
2022-08-05T03:27:02.422Z,25.70
2022-08-05T03:29:44.549Z,25.70
2022-08-05T03:32:19.597Z,25.70
2022-08-05T03:34:50.474Z,25.70
2022-08-05T03:37:21.036Z,25.70
2022-08-05T03:40:01.248Z,25.70
2022-08-05T03:42:32.940Z,25.70
2022-08-05T03:45:21.880Z,25.70
2022-08-05T03:47:51.238Z,25.70
2022-08-05T03:50:18.855Z,25.60
2022-08-05T03:55:52.989Z,25.70
2022-08-05T03:56:27.836Z,25.60
2022-08-05T03:59:01.939Z,25.60
2022-08-05T04:01:32.338Z,25.70
2022-08-05T04:04:09.707Z,25.70
2022-08-05T04:06:47.778Z,25.70
2022-08-05T04:09:26.005Z,25.70
2022-08-05T04:11:56.402Z,25.70
2022-08-05T04:14:30.024Z,25.70
2022-08-05T04:16:59.804Z,25.60
2022-08-05T04:19:28.847Z,25.60
2022-08-05T04:22:08.281Z,25.60
2022-08-05T04:24:44.333Z,25.60
2022-08-05T04:27:15.786Z,25.60
2022-08-05T04:29:43.339Z,25.60
2022-08-05T04:32:10.879Z,25.60
2022-08-05T04:34:42.679Z,25.60
2022-08-05T04:37:11.084Z,25.60
2022-08-05T04:39:39.231Z,25.60
2022-08-05T04:42:07.977Z,25.70
2022-08-05T04:44:37.886Z,25.70
2022-08-05T04:47:08.961Z,25.70
2022-08-05T04:50:02.976Z,25.80
2022-08-05T04:52:27.659Z,25.80
2022-08-05T04:54:57.353Z,25.90
2022-08-05T04:57:28.824Z,25.90
2022-08-05T04:59:57.200Z,26.00
2022-08-05T05:02:36.894Z,26.00
2022-08-05T05:05:16.805Z,26.10
2022-08-05T05:07:56.394Z,26.20
2022-08-05T05:10:29.765Z,26.20
2022-08-05T05:12:57.800Z,26.30
2022-08-05T05:15:57.059Z,26.30
2022-08-05T05:18:28.447Z,26.40
2022-08-05T05:21:01.167Z,26.40
2022-08-05T05:24:02.432Z,26.50
2022-08-05T05:26:15.883Z,26.60
2022-08-05T05:28:44.838Z,26.70
2022-08-05T05:31:12.938Z,26.70
2022-08-05T05:33:59.872Z,26.80
2022-08-05T05:36:28.393Z,26.90
2022-08-05T05:38:57.399Z,27.00
2022-08-05T05:41:24.998Z,27.10
2022-08-05T05:43:57.957Z,27.20
2022-08-05T05:46:27.989Z,27.30
2022-08-05T05:48:55.220Z,27.40
2022-08-05T05:51:24.096Z,27.50
2022-08-05T05:53:58.511Z,27.60
2022-08-05T05:56:32.602Z,27.80
2022-08-05T05:59:05.361Z,27.90
2022-08-05T06:01:39.656Z,28.10
2022-08-05T06:04:12.232Z,28.20
2022-08-05T06:06:46.687Z,28.30
2022-08-05T06:09:17.077Z,28.40
2022-08-05T06:12:00.012Z,28.50
2022-08-05T06:14:31.265Z,28.60
2022-08-05T06:16:59.419Z,28.80
2022-08-05T06:19:34.854Z,28.90
2022-08-05T06:22:07.764Z,29.00
2022-08-05T06:24:41.353Z,29.10
2022-08-05T06:28:09.042Z,29.20
2022-08-05T06:30:17.683Z,29.30
2022-08-05T06:32:50.707Z,29.40
2022-08-05T06:36:03.031Z,29.60
2022-08-05T06:38:11.312Z,29.80
2022-08-05T06:40:42.119Z,29.80
2022-08-05T06:43:59.153Z,29.80
2022-08-05T06:46:06.802Z,29.90
2022-08-05T06:48:54.796Z,29.90
2022-08-05T06:51:29.522Z,30.10
2022-08-05T06:53:59.533Z,30.20
2022-08-05T06:56:28.109Z,30.40
2022-08-05T06:58:56.154Z,30.50
2022-08-05T07:01:27.700Z,30.80
2022-08-05T07:04:02.412Z,31.00
2022-08-05T07:06:30.594Z,31.20
2022-08-05T07:08:59.633Z,31.30
2022-08-05T07:11:33.197Z,31.30
2022-08-05T07:14:29.904Z,31.40
2022-08-05T07:18:08.591Z,31.50
2022-08-05T07:22:41.957Z,31.60
2022-08-05T07:25:55.315Z,31.40
2022-08-05T07:28:05.367Z,31.40
2022-08-05T07:30:38.429Z,31.50
2022-08-05T07:33:09.553Z,31.70
2022-08-05T07:36:02.248Z,31.90
2022-08-05T07:38:34.341Z,31.90
2022-08-05T07:42:06.893Z,32.00
2022-08-05T07:43:56.791Z,32.20
2022-08-05T07:46:29.597Z,32.10
2022-08-05T07:49:03.821Z,32.20
2022-08-05T07:51:37.018Z,32.30
2022-08-05T07:54:08.219Z,32.20
2022-08-05T07:56:54.782Z,32.20
2022-08-05T07:59:38.295Z,32.30
2022-08-05T08:02:15.848Z,32.40
2022-08-05T08:04:49.470Z,32.30
2022-08-05T08:07:22.450Z,32.50
2022-08-05T08:09:53.144Z,32.60
2022-08-05T08:12:33.348Z,32.70
2022-08-05T08:15:14.001Z,32.80
2022-08-05T08:17:52.635Z,32.90
2022-08-05T08:20:59.921Z,33.10
2022-08-05T08:24:02.726Z,33.10
2022-08-05T08:26:02.634Z,33.20
2022-08-05T08:28:37.058Z,33.20
2022-08-05T08:31:09.945Z,33.10
2022-08-05T08:33:42.412Z,33.10
2022-08-05T08:36:38.197Z,33.10
2022-08-05T08:38:58.659Z,33.20
2022-08-05T08:41:51.808Z,33.30
2022-08-05T08:45:23.520Z,33.40
2022-08-05T08:47:47.261Z,33.30
2022-08-05T08:50:14.650Z,33.40
2022-08-05T08:52:56.941Z,33.30
2022-08-05T08:56:02.443Z,33.50
2022-08-05T08:58:13.261Z,33.80
2022-08-05T09:00:42.502Z,34.00
2022-08-05T09:03:15.922Z,34.20
2022-08-05T09:06:07.590Z,34.00
2022-08-05T09:08:35.189Z,33.80
2022-08-05T09:11:07.916Z,34.00
2022-08-05T09:13:41.408Z,34.10
2022-08-05T09:16:26.918Z,34.20
2022-08-05T09:18:55.302Z,34.10
2022-08-05T09:22:23.110Z,34.20
2022-08-05T09:24:13.020Z,34.30
2022-08-05T09:26:46.660Z,34.30
2022-08-05T09:29:17.484Z,34.20
2022-08-05T09:32:40.126Z,34.00
2022-08-05T09:34:55.416Z,34.00
2022-08-05T09:38:12.343Z,34.20
2022-08-05T09:40:31.113Z,34.10
2022-08-05T09:43:02.261Z,34.20
2022-08-05T09:46:06.204Z,33.80
2022-08-05T09:48:30.190Z,33.90
2022-08-05T09:51:03.705Z,33.80
2022-08-05T09:53:54.884Z,33.70
2022-08-05T09:56:33.703Z,33.80
2022-08-05T09:59:24.026Z,33.90
2022-08-05T10:01:58.002Z,33.90
2022-08-05T10:04:38.567Z,33.80
2022-08-05T10:07:20.310Z,33.70
2022-08-05T10:10:14.212Z,33.90
2022-08-05T10:12:52.275Z,33.90
2022-08-05T10:15:23.624Z,34.00
2022-08-05T10:18:14.338Z,34.10
2022-08-05T10:20:48.625Z,34.20
2022-08-05T10:23:55.706Z,34.40
2022-08-05T10:26:15.330Z,34.50
2022-08-05T10:28:44.460Z,34.50
2022-08-05T10:32:54.908Z,34.40
2022-08-05T10:34:08.330Z,34.40
2022-08-05T10:36:41.398Z,34.50
2022-08-05T10:39:24.834Z,34.60
2022-08-05T10:42:32.270Z,34.80
2022-08-05T10:45:03.536Z,34.70
2022-08-05T10:48:31.101Z,34.80
2022-08-05T10:50:58.069Z,34.90
2022-08-05T10:53:45.325Z,34.80
2022-08-05T10:56:25.293Z,34.60
2022-08-05T10:58:56.475Z,35.00
2022-08-05T11:02:03.791Z,35.30
2022-08-05T11:04:34.376Z,35.60
2022-08-05T11:07:06.832Z,36.00
2022-08-05T11:09:46.752Z,36.50
2022-08-05T11:12:55.243Z,36.80
2022-08-05T11:16:00.303Z,36.80
2022-08-05T11:18:32.547Z,36.40
2022-08-05T11:21:00.799Z,36.50
2022-08-05T11:24:04.963Z,36.60
2022-08-05T11:26:40.566Z,36.40
2022-08-05T11:29:38.172Z,36.70
2022-08-05T11:32:34.989Z,36.40
2022-08-05T11:35:03.270Z,36.20
2022-08-05T11:38:30.351Z,36.10
2022-08-05T11:41:15.497Z,36.10
2022-08-05T11:44:08.461Z,36.20
2022-08-05T11:47:10.244Z,36.00
2022-08-05T11:49:39.976Z,36.30
2022-08-05T11:52:11.849Z,36.10
2022-08-05T11:54:41.678Z,35.90
2022-08-05T11:57:25.832Z,35.90
2022-08-05T11:59:54.913Z,35.80
2022-08-05T12:02:36.028Z,35.60
2022-08-05T12:05:06.730Z,36.00
2022-08-05T12:08:08.263Z,36.00
2022-08-05T12:10:43.589Z,36.00
2022-08-05T12:13:28.009Z,35.80
2022-08-05T12:16:14.870Z,35.70
2022-08-05T12:18:52.299Z,35.50
2022-08-05T12:21:42.847Z,35.30
2022-08-05T12:24:14.053Z,35.10
2022-08-05T12:26:53.125Z,35.00
2022-08-05T12:29:23.557Z,34.90
2022-08-05T12:32:02.096Z,34.80
2022-08-05T12:34:32.854Z,34.50
2022-08-05T12:37:16.923Z,34.20
2022-08-05T12:39:51.320Z,33.70
2022-08-05T12:42:21.071Z,33.70
2022-08-05T12:44:53.189Z,33.50
2022-08-05T12:47:31.150Z,33.50
2022-08-05T12:50:04.403Z,33.10
2022-08-05T12:52:38.592Z,33.20
2022-08-05T12:55:22.402Z,33.20
2022-08-05T12:58:51.349Z,33.20
2022-08-05T13:02:00.765Z,33.20
2022-08-05T13:03:32.480Z,33.20
2022-08-05T13:06:01.881Z,33.20
2022-08-05T13:08:33.025Z,33.30
2022-08-05T13:11:04.242Z,33.50
2022-08-05T13:14:05.368Z,33.60
2022-08-05T13:16:20.366Z,33.70
2022-08-05T13:18:55.256Z,33.80
2022-08-05T13:21:28.255Z,33.80
2022-08-05T13:24:08.721Z,33.80
2022-08-05T13:26:36.575Z,33.70
2022-08-05T13:29:04.989Z,33.60
2022-08-05T13:32:03.249Z,33.40
2022-08-05T13:34:25.952Z,33.30
2022-08-05T13:36:54.611Z,33.20
2022-08-05T13:40:12.932Z,33.00
2022-08-05T13:42:15.020Z,33.00
2022-08-05T13:44:46.426Z,33.00
2022-08-05T13:47:35.795Z,33.00
2022-08-05T13:50:04.464Z,33.00
2022-08-05T13:52:35.483Z,33.00
2022-08-05T13:55:07.788Z,33.00
2022-08-05T13:57:50.546Z,33.10
2022-08-05T14:00:27.357Z,33.10
2022-08-05T14:02:58.354Z,33.10
2022-08-05T14:05:48.304Z,33.00
2022-08-05T14:08:21.065Z,33.00
2022-08-05T14:11:03.209Z,32.80
2022-08-05T14:13:42.784Z,32.50
2022-08-05T14:16:11.300Z,32.30
2022-08-05T14:18:39.012Z,32.20
2022-08-05T14:22:07.729Z,32.10
2022-08-05T14:23:54.327Z,32.00
2022-08-05T14:26:38.439Z,32.00
2022-08-05T14:29:10.013Z,31.90
2022-08-05T14:32:03.114Z,31.80
2022-08-05T14:34:35.089Z,31.80
2022-08-05T14:37:04.810Z,31.70
2022-08-05T14:39:49.512Z,31.60
2022-08-05T14:42:22.594Z,31.70
2022-08-05T14:44:52.550Z,31.70
2022-08-05T14:47:58.541Z,31.80
2022-08-05T14:50:17.702Z,31.80
2022-08-05T14:52:53.052Z,31.90
2022-08-05T14:55:21.239Z,31.80
2022-08-05T14:57:54.268Z,31.50
2022-08-05T15:00:28.005Z,31.40
2022-08-05T15:02:55.741Z,31.20
2022-08-05T15:05:29.618Z,31.30
2022-08-05T15:08:06.095Z,31.20
2022-08-05T15:10:43.476Z,31.10
2022-08-05T15:13:13.793Z,31.00
2022-08-05T15:15:55.137Z,30.90
2022-08-05T15:18:25.171Z,30.80
2022-08-05T15:20:52.366Z,30.60
2022-08-05T15:23:20.130Z,30.60
2022-08-05T15:25:52.581Z,30.60
2022-08-05T15:28:27.017Z,30.70
2022-08-05T15:30:55.582Z,30.80
2022-08-05T15:34:18.578Z,31.00
2022-08-05T15:36:17.278Z,31.20
2022-08-05T15:40:41.192Z,31.40
2022-08-05T15:41:58.099Z,31.50
2022-08-05T15:44:30.862Z,31.50
2022-08-05T15:46:59.422Z,31.50
2022-08-05T15:49:48.048Z,31.50
2022-08-05T15:52:17.002Z,31.60
2022-08-05T15:55:02.053Z,31.70
2022-08-05T15:57:33.015Z,31.80
2022-08-05T16:00:03.566Z,31.90
2022-08-05T16:02:32.274Z,32.00
2022-08-05T16:05:00.021Z,31.90
2022-08-05T16:07:29.417Z,32.00
2022-08-05T16:09:57.178Z,32.10
2022-08-05T16:12:24.546Z,32.20
2022-08-05T16:14:52.113Z,32.30
2022-08-05T16:17:19.465Z,32.30
2022-08-05T16:20:05.972Z,32.40
2022-08-05T16:22:34.725Z,32.40
2022-08-05T16:25:07.987Z,32.30
2022-08-05T16:27:59.910Z,32.20
2022-08-05T16:30:26.106Z,32.10
2022-08-05T16:32:54.396Z,31.90
2022-08-05T16:35:27.921Z,31.90
2022-08-05T16:38:15.678Z,31.80
2022-08-05T16:40:48.093Z,31.70
2022-08-05T16:43:24.033Z,31.70
2022-08-05T16:46:05.868Z,31.60
2022-08-05T16:48:40.317Z,31.50
2022-08-05T16:51:09.311Z,31.50
2022-08-05T16:54:06.049Z,31.40
2022-08-05T16:56:29.461Z,31.40
2022-08-05T16:58:57.896Z,31.40
2022-08-05T17:01:25.297Z,31.40
2022-08-05T17:03:52.811Z,31.30
2022-08-05T17:06:20.665Z,31.40
2022-08-05T17:08:54.392Z,31.30
2022-08-05T17:11:25.728Z,31.30
2022-08-05T17:14:00.469Z,31.20
2022-08-05T17:16:38.241Z,31.10
2022-08-05T17:19:09.450Z,31.10
2022-08-05T17:21:39.414Z,31.00
2022-08-05T17:24:18.675Z,30.80
2022-08-05T17:26:58.583Z,30.80
2022-08-05T17:29:33.854Z,30.70
2022-08-05T17:32:11.159Z,30.70
2022-08-05T17:34:39.973Z,30.50
2022-08-05T17:37:32.191Z,30.50
2022-08-05T17:40:00.059Z,30.50
2022-08-05T17:42:31.940Z,30.40
2022-08-05T17:45:09.823Z,30.30
2022-08-05T17:47:47.001Z,30.30
2022-08-05T17:50:27.643Z,30.20
2022-08-05T17:52:59.102Z,30.10
2022-08-05T17:55:34.606Z,30.10
2022-08-05T17:58:09.560Z,30.00
2022-08-05T18:00:44.990Z,29.90
2022-08-05T18:03:39.344Z,29.80
2022-08-05T18:06:11.165Z,29.70
2022-08-05T18:08:44.779Z,29.70
2022-08-05T18:11:24.113Z,29.70
2022-08-05T18:14:01.420Z,29.70
2022-08-05T18:16:31.636Z,29.70
2022-08-05T18:18:58.894Z,29.70
2022-08-05T18:21:28.064Z,29.70
2022-08-05T18:24:14.379Z,29.70
2022-08-05T18:26:42.038Z,29.70
2022-08-05T18:29:11.179Z,29.60
2022-08-05T18:31:42.990Z,29.60
2022-08-05T18:34:11.980Z,29.60
2022-08-05T18:36:41.123Z,29.60
2022-08-05T18:39:22.366Z,29.50
2022-08-05T18:42:03.745Z,29.50
2022-08-05T18:44:51.444Z,29.50
2022-08-05T18:47:22.945Z,29.40
2022-08-05T18:50:13.148Z,29.40
2022-08-05T18:52:50.840Z,29.40
2022-08-05T18:55:21.692Z,29.40
2022-08-05T18:57:53.981Z,29.40
2022-08-05T19:00:28.817Z,29.40
2022-08-05T19:03:03.287Z,29.40
2022-08-05T19:06:11.606Z,29.40
2022-08-05T19:08:30.686Z,29.40
2022-08-05T19:10:59.750Z,29.30
2022-08-05T19:13:36.150Z,29.40
2022-08-05T19:16:05.322Z,29.40
2022-08-05T19:18:53.394Z,29.30
2022-08-05T19:21:23.954Z,29.30
2022-08-05T19:24:07.164Z,29.30
2022-08-05T19:26:36.785Z,29.20
2022-08-05T19:29:23.945Z,29.20
2022-08-05T19:31:57.346Z,29.20
2022-08-05T19:34:25.106Z,29.20
2022-08-05T19:36:52.755Z,29.30
2022-08-05T19:39:20.134Z,29.30
2022-08-05T19:42:06.399Z,29.30
2022-08-05T19:44:40.226Z,29.40
2022-08-05T19:47:16.048Z,29.30
2022-08-05T19:49:45.223Z,29.40
2022-08-05T19:52:30.865Z,29.40
2022-08-05T19:55:06.941Z,29.40
2022-08-05T19:58:19.515Z,29.30
2022-08-05T20:00:36.565Z,29.30
2022-08-05T20:03:08.749Z,29.30
2022-08-05T20:05:50.243Z,29.20
2022-08-05T20:08:19.993Z,29.20
2022-08-05T20:10:49.556Z,29.20
2022-08-05T20:13:18.277Z,29.20
2022-08-05T20:15:57.651Z,29.20
2022-08-05T20:18:33.552Z,29.20
2022-08-05T20:21:06.557Z,29.10
2022-08-05T20:23:51.393Z,29.10
2022-08-05T20:26:23.435Z,29.10
2022-08-05T20:28:55.804Z,29.10
2022-08-05T20:31:37.281Z,29.00
2022-08-05T20:34:13.196Z,29.00
2022-08-05T20:36:43.499Z,29.00
2022-08-05T20:39:13.238Z,28.90
2022-08-05T20:41:44.628Z,28.90
2022-08-05T20:44:18.455Z,28.90
2022-08-05T20:46:59.223Z,28.80
2022-08-05T20:49:27.485Z,28.80
2022-08-05T20:51:57.339Z,28.80
2022-08-05T20:54:42.847Z,28.80
2022-08-05T20:57:42.715Z,28.80
2022-08-05T21:00:20.532Z,28.70
2022-08-05T21:02:57.043Z,28.70
2022-08-05T21:05:25.336Z,28.60
2022-08-05T21:08:05.590Z,28.60
2022-08-05T21:10:33.629Z,28.60
2022-08-05T21:13:11.117Z,28.50
2022-08-05T21:15:44.468Z,28.50
2022-08-05T21:18:18.213Z,28.50
2022-08-05T21:20:45.517Z,28.40
2022-08-05T21:23:14.170Z,28.40
2022-08-05T21:25:44.969Z,28.40
2022-08-05T21:28:12.297Z,28.30
2022-08-05T21:30:45.868Z,28.30
2022-08-05T21:33:21.991Z,28.30
2022-08-05T21:35:58.748Z,28.30
2022-08-05T21:38:27.965Z,28.30
2022-08-05T21:40:55.255Z,28.30
2022-08-05T21:43:24.794Z,28.30
2022-08-05T21:45:56.490Z,28.30
2022-08-05T21:48:25.010Z,28.20
2022-08-05T21:50:54.370Z,28.20
2022-08-05T21:53:27.268Z,28.20
2022-08-05T21:56:06.316Z,28.10
2022-08-05T21:58:56.964Z,28.00
2022-08-05T22:01:26.116Z,28.00
2022-08-05T22:03:53.911Z,28.00
2022-08-05T22:06:22.743Z,27.90
2022-08-05T22:08:52.206Z,27.90
2022-08-05T22:11:35.452Z,27.90
2022-08-05T22:14:18.238Z,27.80
2022-08-05T22:16:56.804Z,27.80
2022-08-05T22:20:03.424Z,27.80
2022-08-05T22:22:15.629Z,27.80
2022-08-05T22:25:01.974Z,27.70
2022-08-05T22:28:08.771Z,27.70
2022-08-05T22:30:35.815Z,27.70
2022-08-05T22:33:15.459Z,27.70
2022-08-05T22:35:48.575Z,27.70
2022-08-05T22:38:19.000Z,27.70
2022-08-05T22:40:49.392Z,27.60
2022-08-05T22:43:37.015Z,27.60
2022-08-05T22:46:12.082Z,27.60
2022-08-05T22:48:42.147Z,27.70
2022-08-05T22:51:22.369Z,27.60
2022-08-05T22:53:51.954Z,27.60
2022-08-05T22:56:30.570Z,27.60
2022-08-05T22:59:03.264Z,27.60
2022-08-05T23:02:05.190Z,27.60
2022-08-05T23:04:34.469Z,27.50
2022-08-05T23:07:02.446Z,27.50
2022-08-05T23:09:57.758Z,27.50
2022-08-05T23:12:18.464Z,27.50
2022-08-05T23:14:51.518Z,27.50
2022-08-05T23:17:34.698Z,27.50
2022-08-05T23:20:16.326Z,27.50
2022-08-05T23:22:47.800Z,27.40
2022-08-05T23:25:51.215Z,27.40
2022-08-05T23:28:07.231Z,27.30
2022-08-05T23:30:40.633Z,27.40
2022-08-05T23:33:16.015Z,27.30
2022-08-05T23:35:50.289Z,27.30
2022-08-05T23:38:18.043Z,27.30
2022-08-05T23:40:49.995Z,27.30
2022-08-05T23:43:25.472Z,27.30
2022-08-05T23:46:19.855Z,27.30
2022-08-05T23:49:00.236Z,27.20
2022-08-05T23:51:55.401Z,27.20
2022-08-05T23:54:33.943Z,27.20
2022-08-05T23:57:04.819Z,27.20
